Terminal Aerodrome Forecast
Issued by NWS

Home | Current Version | Previous Version | Text Only | Print | Product List | Glossary On
Versions: 1 2 3 4 5 6 7 8 9 10 11 12 13 14 15 16 17 18 19 20 21 22 23 24 25 26 27 28
000
FTUS41 KOKX 281736
TAFHPN
TAF
KHPN 281736Z 2818/2918 08007KT 1SM RA BR OVC002
     FM290000 04003KT 1/2SM -RA FG OVC002
     FM290200 01003KT 1/4SM -DZ FG OVC001
     FM290800 34008KT 1SM BR BKN002 OVC010
     FM291200 33010KT P6SM BKN050
     FM291500 33014KT P6SM SCT250
      AMD NOT SKED=

USA.gov is the U.S. government's official web portal to all federal, state and local government web resources and services.